sensor_id;sensor_type;location;lat;lon;timestamp;P1;durP1;ratioP1;P2;durP2;ratioP2
69419;SDS011;56612;52.030;113.524;2023-02-03T00:02:49;28.45;;;10.63;;
69419;SDS011;56612;52.030;113.524;2023-02-03T00:05:53;57.57;;;17.70;;
69419;SDS011;56612;52.030;113.524;2023-02-03T00:08:57;66.32;;;21.50;;
69419;SDS011;56612;52.030;113.524;2023-02-03T00:12:05;89.30;;;26.50;;
69419;SDS011;56612;52.030;113.524;2023-02-03T00:15:09;100.87;;;31.30;;
69419;SDS011;56612;52.030;113.524;2023-02-03T00:18:12;89.82;;;31.13;;
69419;SDS011;56612;52.030;113.524;2023-02-03T00:21:16;151.02;;;48.78;;
69419;SDS011;56612;52.030;113.524;2023-02-03T00:24:22;106.63;;;32.50;;
69419;SDS011;56612;52.030;113.524;2023-02-03T00:27:25;98.45;;;33.17;;
69419;SDS011;56612;52.030;113.524;2023-02-03T00:30:30;67.85;;;24.25;;
69419;SDS011;56612;52.030;113.524;2023-02-03T00:33:36;52.33;;;12.77;;
69419;SDS011;56612;52.030;113.524;2023-02-03T00:36:41;45.40;;;14.40;;
69419;SDS011;56612;52.030;113.524;2023-02-03T00:39:45;54.83;;;17.70;;
69419;SDS011;56612;52.030;113.524;2023-02-03T00:42:49;52.42;;;16.33;;
69419;SDS011;56612;52.030;113.524;2023-02-03T00:45:52;40.00;;;15.97;;
69419;SDS011;56612;52.030;113.524;2023-02-03T00:48:56;22.65;;;6.88;;
69419;SDS011;56612;52.030;113.524;2023-02-03T00:51:59;16.00;;;6.18;;
69419;SDS011;56612;52.030;113.524;2023-02-03T00:55:03;27.35;;;9.43;;
69419;SDS011;56612;52.030;113.524;2023-02-03T00:58:07;43.30;;;14.50;;
69419;SDS011;56612;52.030;113.524;2023-02-03T01:01:11;30.33;;;12.20;;
69419;SDS011;56612;52.030;113.524;2023-02-03T01:04:15;36.75;;;14.27;;
69419;SDS011;56612;52.030;113.524;2023-02-03T01:07:19;29.80;;;8.33;;
69419;SDS011;56612;52.030;113.524;2023-02-03T01:10:22;26.88;;;8.35;;
69419;SDS011;56612;52.030;113.524;2023-02-03T01:13:27;29.63;;;10.18;;
69419;SDS011;56612;52.030;113.524;2023-02-03T01:16:30;21.57;;;8.83;;
69419;SDS011;56612;52.030;113.524;2023-02-03T01:19:37;29.23;;;11.50;;
69419;SDS011;56612;52.030;113.524;2023-02-03T01:22:41;35.05;;;11.35;;
69419;SDS011;56612;52.030;113.524;2023-02-03T01:25:45;70.57;;;20.48;;
69419;SDS011;56612;52.030;113.524;2023-02-03T01:28:52;57.20;;;16.43;;
69419;SDS011;56612;52.030;113.524;2023-02-03T01:31:58;49.25;;;13.35;;
69419;SDS011;56612;52.030;113.524;2023-02-03T01:35:02;40.65;;;13.20;;
69419;SDS011;56612;52.030;113.524;2023-02-03T01:38:05;29.00;;;10.95;;
69419;SDS011;56612;52.030;113.524;2023-02-03T01:41:14;52.10;;;15.87;;
69419;SDS011;56612;52.030;113.524;2023-02-03T01:47:45;48.70;;;16.65;;
69419;SDS011;56612;52.030;113.524;2023-02-03T01:50:53;48.33;;;14.60;;
69419;SDS011;56612;52.030;113.524;2023-02-03T01:53:57;40.97;;;14.02;;
69419;SDS011;56612;52.030;113.524;2023-02-03T01:57:03;42.38;;;14.45;;
69419;SDS011;56612;52.030;113.524;2023-02-03T02:00:27;39.13;;;13.82;;
69419;SDS011;56612;52.030;113.524;2023-02-03T02:03:33;43.07;;;12.90;;
69419;SDS011;56612;52.030;113.524;2023-02-03T02:06:41;34.85;;;10.30;;
69419;SDS011;56612;52.030;113.524;2023-02-03T02:09:45;30.80;;;11.23;;
69419;SDS011;56612;52.030;113.524;2023-02-03T02:12:50;26.88;;;9.80;;
69419;SDS011;56612;52.030;113.524;2023-02-03T02:23:04;30.02;;;9.98;;
69419;SDS011;56612;52.030;113.524;2023-02-03T02:29:48;47.05;;;16.58;;
69419;SDS011;56612;52.030;113.524;2023-02-03T02:43:00;446.75;;;143.55;;
69419;SDS011;56612;52.030;113.524;2023-02-03T02:46:10;348.08;;;103.55;;
69419;SDS011;56612;52.030;113.524;2023-02-03T02:50:06;224.70;;;68.40;;
69419;SDS011;56612;52.030;113.524;2023-02-03T02:53:03;231.82;;;65.55;;
69419;SDS011;56612;52.030;113.524;2023-02-03T02:56:08;142.45;;;46.90;;
69419;SDS011;56612;52.030;113.524;2023-02-03T02:59:14;57.28;;;19.27;;
69419;SDS011;56612;52.030;113.524;2023-02-03T03:02:18;53.50;;;15.82;;
69419;SDS011;56612;52.030;113.524;2023-02-03T03:05:22;46.72;;;18.23;;
69419;SDS011;56612;52.030;113.524;2023-02-03T03:08:32;47.30;;;16.17;;
69419;SDS011;56612;52.030;113.524;2023-02-03T03:11:49;52.20;;;18.23;;
69419;SDS011;56612;52.030;113.524;2023-02-03T03:15:02;61.83;;;21.77;;
69419;SDS011;56612;52.030;113.524;2023-02-03T03:21:30;65.20;;;21.75;;
69419;SDS011;56612;52.030;113.524;2023-02-03T03:24:41;61.67;;;20.10;;
69419;SDS011;56612;52.030;113.524;2023-02-03T03:27:53;47.90;;;17.77;;
69419;SDS011;56612;52.030;113.524;2023-02-03T03:31:03;57.38;;;19.80;;
69419;SDS011;56612;52.030;113.524;2023-02-03T03:34:07;58.00;;;18.77;;
69419;SDS011;56612;52.030;113.524;2023-02-03T03:44:36;45.75;;;14.55;;
69419;SDS011;56612;52.030;113.524;2023-02-03T03:51:08;35.78;;;11.32;;
69419;SDS011;56612;52.030;113.524;2023-02-03T03:54:16;48.60;;;16.63;;
69419;SDS011;56612;52.030;113.524;2023-02-03T03:57:42;38.03;;;12.85;;
69419;SDS011;56612;52.030;113.524;2023-02-03T04:00:50;45.38;;;14.43;;
69419;SDS011;56612;52.030;113.524;2023-02-03T04:03:59;44.53;;;13.38;;
69419;SDS011;56612;52.030;113.524;2023-02-03T04:07:04;43.47;;;14.00;;
69419;SDS011;56612;52.030;113.524;2023-02-03T04:10:20;47.92;;;15.60;;
69419;SDS011;56612;52.030;113.524;2023-02-03T04:13:33;52.03;;;14.00;;
69419;SDS011;56612;52.030;113.524;2023-02-03T04:16:36;47.58;;;14.40;;
69419;SDS011;56612;52.030;113.524;2023-02-03T04:19:39;25.17;;;8.00;;
69419;SDS011;56612;52.030;113.524;2023-02-03T04:22:42;24.30;;;7.80;;
69419;SDS011;56612;52.030;113.524;2023-02-03T04:25:46;26.10;;;8.80;;
69419;SDS011;56612;52.030;113.524;2023-02-03T04:28:49;12.75;;;4.30;;
69419;SDS011;56612;52.030;113.524;2023-02-03T04:31:52;8.35;;;3.17;;
69419;SDS011;56612;52.030;113.524;2023-02-03T04:34:56;5.20;;;1.43;;
69419;SDS011;56612;52.030;113.524;2023-02-03T04:38:00;10.07;;;1.95;;
69419;SDS011;56612;52.030;113.524;2023-02-03T04:41:03;8.05;;;1.98;;
69419;SDS011;56612;52.030;113.524;2023-02-03T04:44:07;4.82;;;1.55;;
69419;SDS011;56612;52.030;113.524;2023-02-03T04:47:11;5.53;;;2.10;;
69419;SDS011;56612;52.030;113.524;2023-02-03T04:50:14;4.67;;;2.03;;
69419;SDS011;56612;52.030;113.524;2023-02-03T04:53:18;10.77;;;3.08;;
69419;SDS011;56612;52.030;113.524;2023-02-03T04:56:22;6.63;;;1.60;;
69419;SDS011;56612;52.030;113.524;2023-02-03T04:59:25;1.85;;;0.52;;
69419;SDS011;56612;52.030;113.524;2023-02-03T05:02:29;8.07;;;2.33;;
69419;SDS011;56612;52.030;113.524;2023-02-03T05:05:32;3.60;;;1.45;;
69419;SDS011;56612;52.030;113.524;2023-02-03T05:08:35;5.25;;;1.48;;
69419;SDS011;56612;52.030;113.524;2023-02-03T05:11:39;3.63;;;1.30;;
69419;SDS011;56612;52.030;113.524;2023-02-03T05:14:42;5.13;;;1.50;;
69419;SDS011;56612;52.030;113.524;2023-02-03T05:17:46;3.57;;;0.93;;
69419;SDS011;56612;52.030;113.524;2023-02-03T05:20:50;5.63;;;1.38;;
69419;SDS011;56612;52.030;113.524;2023-02-03T05:23:54;2.88;;;1.02;;
69419;SDS011;56612;52.030;113.524;2023-02-03T05:26:57;5.10;;;1.45;;
69419;SDS011;56612;52.030;113.524;2023-02-03T05:30:00;5.43;;;1.92;;
69419;SDS011;56612;52.030;113.524;2023-02-03T05:33:03;9.13;;;2.13;;
69419;SDS011;56612;52.030;113.524;2023-02-03T05:36:06;4.35;;;1.40;;
69419;SDS011;56612;52.030;113.524;2023-02-03T05:39:09;4.03;;;1.60;;
69419;SDS011;56612;52.030;113.524;2023-02-03T05:42:13;5.70;;;1.67;;
69419;SDS011;56612;52.030;113.524;2023-02-03T05:45:16;5.88;;;1.73;;
69419;SDS011;56612;52.030;113.524;2023-02-03T05:48:20;5.17;;;1.40;;
69419;SDS011;56612;52.030;113.524;2023-02-03T05:51:23;6.85;;;2.33;;
69419;SDS011;56612;52.030;113.524;2023-02-03T05:54:26;5.60;;;1.63;;
69419;SDS011;56612;52.030;113.524;2023-02-03T05:57:30;5.20;;;1.55;;
69419;SDS011;56612;52.030;113.524;2023-02-03T06:00:33;5.43;;;1.80;;
69419;SDS011;56612;52.030;113.524;2023-02-03T06:03:36;6.53;;;1.80;;
69419;SDS011;56612;52.030;113.524;2023-02-03T06:06:39;7.10;;;1.70;;
69419;SDS011;56612;52.030;113.524;2023-02-03T06:09:42;3.90;;;1.40;;
69419;SDS011;56612;52.030;113.524;2023-02-03T06:12:46;11.35;;;2.75;;
69419;SDS011;56612;52.030;113.524;2023-02-03T06:15:50;8.95;;;3.47;;
69419;SDS011;56612;52.030;113.524;2023-02-03T06:18:54;8.40;;;2.50;;
69419;SDS011;56612;52.030;113.524;2023-02-03T06:22:02;8.57;;;2.30;;
69419;SDS011;56612;52.030;113.524;2023-02-03T06:25:06;8.02;;;2.42;;
69419;SDS011;56612;52.030;113.524;2023-02-03T06:28:14;8.38;;;2.85;;
69419;SDS011;56612;52.030;113.524;2023-02-03T06:31:19;7.57;;;2.15;;
69419;SDS011;56612;52.030;113.524;2023-02-03T06:34:22;12.33;;;3.37;;
69419;SDS011;56612;52.030;113.524;2023-02-03T06:37:25;8.55;;;2.92;;
69419;SDS011;56612;52.030;113.524;2023-02-03T06:40:28;8.85;;;2.83;;
69419;SDS011;56612;52.030;113.524;2023-02-03T06:43:32;4.20;;;1.88;;
69419;SDS011;56612;52.030;113.524;2023-02-03T06:46:37;8.07;;;2.55;;
69419;SDS011;56612;52.030;113.524;2023-02-03T06:49:40;8.43;;;2.87;;
69419;SDS011;56612;52.030;113.524;2023-02-03T06:52:43;9.77;;;3.47;;
69419;SDS011;56612;52.030;113.524;2023-02-03T06:55:47;9.48;;;3.33;;
69419;SDS011;56612;52.030;113.524;2023-02-03T06:58:50;10.07;;;4.00;;
69419;SDS011;56612;52.030;113.524;2023-02-03T07:01:54;12.80;;;4.50;;
69419;SDS011;56612;52.030;113.524;2023-02-03T07:04:58;7.27;;;2.70;;
69419;SDS011;56612;52.030;113.524;2023-02-03T07:08:03;11.05;;;3.58;;
69419;SDS011;56612;52.030;113.524;2023-02-03T07:11:06;9.20;;;3.75;;
69419;SDS011;56612;52.030;113.524;2023-02-03T07:14:09;14.30;;;4.20;;
69419;SDS011;56612;52.030;113.524;2023-02-03T07:17:13;13.05;;;4.32;;
69419;SDS011;56612;52.030;113.524;2023-02-03T07:20:17;11.37;;;4.40;;
69419;SDS011;56612;52.030;113.524;2023-02-03T07:23:20;11.38;;;4.43;;
69419;SDS011;56612;52.030;113.524;2023-02-03T07:26:24;13.93;;;4.72;;
69419;SDS011;56612;52.030;113.524;2023-02-03T07:29:27;13.38;;;5.18;;
69419;SDS011;56612;52.030;113.524;2023-02-03T07:32:31;21.45;;;7.75;;
69419;SDS011;56612;52.030;113.524;2023-02-03T07:35:34;23.03;;;6.83;;
69419;SDS011;56612;52.030;113.524;2023-02-03T07:38:38;11.70;;;4.97;;
69419;SDS011;56612;52.030;113.524;2023-02-03T07:41:42;9.05;;;3.47;;
69419;SDS011;56612;52.030;113.524;2023-02-03T07:44:45;12.75;;;4.60;;
69419;SDS011;56612;52.030;113.524;2023-02-03T07:47:48;9.98;;;3.55;;
69419;SDS011;56612;52.030;113.524;2023-02-03T07:50:51;10.63;;;4.10;;
69419;SDS011;56612;52.030;113.524;2023-02-03T07:53:55;14.23;;;4.60;;
69419;SDS011;56612;52.030;113.524;2023-02-03T07:56:58;13.50;;;4.30;;
69419;SDS011;56612;52.030;113.524;2023-02-03T08:00:02;10.52;;;3.92;;
69419;SDS011;56612;52.030;113.524;2023-02-03T08:03:12;13.77;;;4.72;;
69419;SDS011;56612;52.030;113.524;2023-02-03T08:06:16;11.30;;;4.00;;
69419;SDS011;56612;52.030;113.524;2023-02-03T08:09:19;14.88;;;5.32;;
69419;SDS011;56612;52.030;113.524;2023-02-03T08:12:22;18.00;;;5.68;;
69419;SDS011;56612;52.030;113.524;2023-02-03T08:15:26;32.63;;;9.55;;
69419;SDS011;56612;52.030;113.524;2023-02-03T08:18:30;21.15;;;5.82;;
69419;SDS011;56612;52.030;113.524;2023-02-03T08:21:33;21.07;;;7.10;;
69419;SDS011;56612;52.030;113.524;2023-02-03T08:24:37;16.80;;;5.28;;
69419;SDS011;56612;52.030;113.524;2023-02-03T08:27:41;17.50;;;6.00;;
69419;SDS011;56612;52.030;113.524;2023-02-03T08:30:44;23.70;;;9.45;;
69419;SDS011;56612;52.030;113.524;2023-02-03T08:33:48;30.58;;;10.82;;
69419;SDS011;56612;52.030;113.524;2023-02-03T08:36:52;22.23;;;8.90;;
69419;SDS011;56612;52.030;113.524;2023-02-03T08:39:57;25.35;;;7.80;;
69419;SDS011;56612;52.030;113.524;2023-02-03T08:43:01;21.27;;;7.95;;
69419;SDS011;56612;52.030;113.524;2023-02-03T08:46:05;26.98;;;8.02;;
69419;SDS011;56612;52.030;113.524;2023-02-03T08:49:10;21.13;;;8.30;;
69419;SDS011;56612;52.030;113.524;2023-02-03T08:52:13;23.00;;;7.90;;
69419;SDS011;56612;52.030;113.524;2023-02-03T08:55:19;17.35;;;6.38;;
69419;SDS011;56612;52.030;113.524;2023-02-03T08:58:22;27.98;;;9.32;;
69419;SDS011;56612;52.030;113.524;2023-02-03T09:01:26;31.50;;;10.35;;
69419;SDS011;56612;52.030;113.524;2023-02-03T09:04:33;42.13;;;14.07;;
69419;SDS011;56612;52.030;113.524;2023-02-03T09:07:37;38.03;;;12.80;;
69419;SDS011;56612;52.030;113.524;2023-02-03T09:10:41;28.52;;;11.20;;
69419;SDS011;56612;52.030;113.524;2023-02-03T09:13:45;22.55;;;9.65;;
69419;SDS011;56612;52.030;113.524;2023-02-03T09:16:49;14.00;;;4.80;;
69419;SDS011;56612;52.030;113.524;2023-02-03T09:19:53;15.57;;;5.82;;
69419;SDS011;56612;52.030;113.524;2023-02-03T09:22:57;16.57;;;7.20;;
69419;SDS011;56612;52.030;113.524;2023-02-03T09:26:02;20.95;;;8.60;;
69419;SDS011;56612;52.030;113.524;2023-02-03T09:29:09;19.20;;;7.55;;
69419;SDS011;56612;52.030;113.524;2023-02-03T09:32:13;28.08;;;8.45;;
69419;SDS011;56612;52.030;113.524;2023-02-03T09:35:16;30.23;;;10.10;;
69419;SDS011;56612;52.030;113.524;2023-02-03T09:38:21;43.85;;;14.43;;
69419;SDS011;56612;52.030;113.524;2023-02-03T09:48:03;41.00;;;15.13;;
69419;SDS011;56612;52.030;113.524;2023-02-03T09:51:24;36.97;;;13.90;;
69419;SDS011;56612;52.030;113.524;2023-02-03T09:57:47;30.95;;;11.20;;
69419;SDS011;56612;52.030;113.524;2023-02-03T10:00:59;31.60;;;11.75;;
69419;SDS011;56612;52.030;113.524;2023-02-03T10:07:25;56.67;;;20.13;;
69419;SDS011;56612;52.030;113.524;2023-02-03T10:17:49;58.38;;;18.30;;
69419;SDS011;56612;52.030;113.524;2023-02-03T10:20:57;68.60;;;20.20;;
69419;SDS011;56612;52.030;113.524;2023-02-03T10:24:14;81.80;;;29.07;;
69419;SDS011;56612;52.030;113.524;2023-02-03T10:27:26;41.42;;;14.65;;
69419;SDS011;56612;52.030;113.524;2023-02-03T10:30:32;51.38;;;17.15;;
69419;SDS011;56612;52.030;113.524;2023-02-03T10:33:47;39.95;;;13.43;;
69419;SDS011;56612;52.030;113.524;2023-02-03T10:40:25;39.53;;;12.97;;
69419;SDS011;56612;52.030;113.524;2023-02-03T10:43:31;43.45;;;15.52;;
69419;SDS011;56612;52.030;113.524;2023-02-03T10:46:52;43.03;;;13.13;;
69419;SDS011;56612;52.030;113.524;2023-02-03T10:49:56;37.25;;;12.95;;
69419;SDS011;56612;52.030;113.524;2023-02-03T10:53:43;49.80;;;17.53;;
69419;SDS011;56612;52.030;113.524;2023-02-03T10:56:31;49.80;;;15.98;;
69419;SDS011;56612;52.030;113.524;2023-02-03T10:59:45;64.45;;;21.67;;
69419;SDS011;56612;52.030;113.524;2023-02-03T11:03:07;70.22;;;21.75;;
69419;SDS011;56612;52.030;113.524;2023-02-03T11:06:22;74.63;;;22.77;;
69419;SDS011;56612;52.030;113.524;2023-02-03T11:09:36;63.80;;;20.58;;
69419;SDS011;56612;52.030;113.524;2023-02-03T11:12:41;64.50;;;20.13;;
69419;SDS011;56612;52.030;113.524;2023-02-03T11:19:17;31.38;;;8.38;;
69419;SDS011;56612;52.030;113.524;2023-02-03T11:22:30;39.40;;;12.53;;
69419;SDS011;56612;52.030;113.524;2023-02-03T11:25:38;39.92;;;11.35;;
69419;SDS011;56612;52.030;113.524;2023-02-03T11:28:41;34.95;;;11.02;;
69419;SDS011;56612;52.030;113.524;2023-02-03T11:31:48;40.47;;;12.63;;
69419;SDS011;56612;52.030;113.524;2023-02-03T11:38:02;89.47;;;30.85;;
69419;SDS011;56612;52.030;113.524;2023-02-03T11:41:13;29.55;;;10.60;;
69419;SDS011;56612;52.030;113.524;2023-02-03T11:44:25;35.05;;;9.93;;
69419;SDS011;56612;52.030;113.524;2023-02-03T11:47:35;29.38;;;8.73;;
69419;SDS011;56612;52.030;113.524;2023-02-03T11:50:49;29.45;;;9.45;;
69419;SDS011;56612;52.030;113.524;2023-02-03T12:08:40;30.67;;;9.20;;
69419;SDS011;56612;52.030;113.524;2023-02-03T12:18:31;26.77;;;9.00;;
69419;SDS011;56612;52.030;113.524;2023-02-03T12:34:52;25.27;;;8.88;;
69419;SDS011;56612;52.030;113.524;2023-02-03T12:37:59;18.30;;;8.30;;
69419;SDS011;56612;52.030;113.524;2023-02-03T12:41:12;25.65;;;9.23;;
69419;SDS011;56612;52.030;113.524;2023-02-03T12:44:22;29.53;;;7.90;;
69419;SDS011;56612;52.030;113.524;2023-02-03T12:47:38;27.77;;;8.70;;
69419;SDS011;56612;52.030;113.524;2023-02-03T12:50:56;29.10;;;9.00;;
69419;SDS011;56612;52.030;113.524;2023-02-03T12:54:24;19.17;;;6.72;;
69419;SDS011;56612;52.030;113.524;2023-02-03T12:57:40;15.60;;;6.20;;
69419;SDS011;56612;52.030;113.524;2023-02-03T13:04:28;15.88;;;5.15;;
69419;SDS011;56612;52.030;113.524;2023-02-03T13:07:37;24.33;;;7.50;;
69419;SDS011;56612;52.030;113.524;2023-02-03T13:10:52;22.20;;;6.53;;
69419;SDS011;56612;52.030;113.524;2023-02-03T13:14:04;20.40;;;4.53;;
69419;SDS011;56612;52.030;113.524;2023-02-03T13:17:21;18.17;;;5.65;;
69419;SDS011;56612;52.030;113.524;2023-02-03T13:20:30;12.95;;;4.15;;
69419;SDS011;56612;52.030;113.524;2023-02-03T13:23:41;17.20;;;4.85;;
69419;SDS011;56612;52.030;113.524;2023-02-03T13:26:57;17.83;;;4.90;;
69419;SDS011;56612;52.030;113.524;2023-02-03T13:43:54;16.90;;;5.73;;
69419;SDS011;56612;52.030;113.524;2023-02-03T13:47:00;22.42;;;5.95;;
69419;SDS011;56612;52.030;113.524;2023-02-03T13:50:05;19.95;;;6.43;;
69419;SDS011;56612;52.030;113.524;2023-02-03T13:53:21;13.50;;;5.13;;
69419;SDS011;56612;52.030;113.524;2023-02-03T13:56:27;13.40;;;4.47;;
69419;SDS011;56612;52.030;113.524;2023-02-03T14:02:42;18.40;;;5.70;;
69419;SDS011;56612;52.030;113.524;2023-02-03T14:05:53;19.67;;;5.80;;
69419;SDS011;56612;52.030;113.524;2023-02-03T14:08:58;15.17;;;5.40;;
69419;SDS011;56612;52.030;113.524;2023-02-03T14:15:34;15.50;;;5.47;;
69419;SDS011;56612;52.030;113.524;2023-02-03T14:18:47;134.80;;;29.48;;
69419;SDS011;56612;52.030;113.524;2023-02-03T14:21:57;127.57;;;31.23;;
69419;SDS011;56612;52.030;113.524;2023-02-03T14:25:08;134.93;;;29.95;;
69419;SDS011;56612;52.030;113.524;2023-02-03T14:28:16;63.67;;;16.35;;
69419;SDS011;56612;52.030;113.524;2023-02-03T14:31:23;51.42;;;16.00;;
69419;SDS011;56612;52.030;113.524;2023-02-03T14:34:41;48.30;;;11.63;;
69419;SDS011;56612;52.030;113.524;2023-02-03T14:37:54;49.03;;;14.13;;
69419;SDS011;56612;52.030;113.524;2023-02-03T14:41:01;71.25;;;16.50;;
69419;SDS011;56612;52.030;113.524;2023-02-03T14:50:44;32.65;;;10.45;;
69419;SDS011;56612;52.030;113.524;2023-02-03T14:54:33;28.85;;;8.73;;
69419;SDS011;56612;52.030;113.524;2023-02-03T14:58:01;29.88;;;9.10;;
69419;SDS011;56612;52.030;113.524;2023-02-03T15:04:46;22.00;;;7.55;;
69419;SDS011;56612;52.030;113.524;2023-02-03T15:07:52;24.70;;;8.88;;
69419;SDS011;56612;52.030;113.524;2023-02-03T15:10:56;21.23;;;7.95;;
69419;SDS011;56612;52.030;113.524;2023-02-03T15:14:32;23.65;;;7.07;;
69419;SDS011;56612;52.030;113.524;2023-02-03T15:17:35;27.48;;;8.73;;
69419;SDS011;56612;52.030;113.524;2023-02-03T15:20:43;28.60;;;7.47;;
69419;SDS011;56612;52.030;113.524;2023-02-03T15:23:48;26.58;;;7.65;;
69419;SDS011;56612;52.030;113.524;2023-02-03T15:26:54;23.23;;;6.67;;
69419;SDS011;56612;52.030;113.524;2023-02-03T15:30:13;26.77;;;8.30;;
69419;SDS011;56612;52.030;113.524;2023-02-03T15:33:17;17.77;;;6.03;;
69419;SDS011;56612;52.030;113.524;2023-02-03T15:36:31;30.58;;;7.80;;
69419;SDS011;56612;52.030;113.524;2023-02-03T15:43:20;19.45;;;6.72;;
69419;SDS011;56612;52.030;113.524;2023-02-03T15:49:54;41.58;;;9.80;;
69419;SDS011;56612;52.030;113.524;2023-02-03T15:53:45;40.23;;;11.37;;
69419;SDS011;56612;52.030;113.524;2023-02-03T15:56:48;48.88;;;12.52;;
69419;SDS011;56612;52.030;113.524;2023-02-03T16:00:22;44.55;;;11.15;;
69419;SDS011;56612;52.030;113.524;2023-02-03T16:06:43;50.88;;;15.43;;
69419;SDS011;56612;52.030;113.524;2023-02-03T16:09:52;73.85;;;20.27;;
69419;SDS011;56612;52.030;113.524;2023-02-03T16:16:29;90.00;;;21.27;;
69419;SDS011;56612;52.030;113.524;2023-02-03T16:23:18;30.27;;;8.10;;
69419;SDS011;56612;52.030;113.524;2023-02-03T16:26:25;30.80;;;8.70;;
69419;SDS011;56612;52.030;113.524;2023-02-03T16:29:34;20.67;;;6.25;;
69419;SDS011;56612;52.030;113.524;2023-02-03T16:32:59;19.13;;;6.93;;
69419;SDS011;56612;52.030;113.524;2023-02-03T16:36:42;21.00;;;6.97;;
69419;SDS011;56612;52.030;113.524;2023-02-03T16:40:04;27.00;;;7.82;;
69419;SDS011;56612;52.030;113.524;2023-02-03T16:43:26;24.35;;;7.10;;
69419;SDS011;56612;52.030;113.524;2023-02-03T16:46:48;21.42;;;8.07;;
69419;SDS011;56612;52.030;113.524;2023-02-03T16:50:14;23.97;;;8.27;;
69419;SDS011;56612;52.030;113.524;2023-02-03T16:53:41;27.25;;;8.00;;
69419;SDS011;56612;52.030;113.524;2023-02-03T16:56:46;25.88;;;7.60;;
69419;SDS011;56612;52.030;113.524;2023-02-03T16:59:50;27.77;;;7.82;;
69419;SDS011;56612;52.030;113.524;2023-02-03T17:02:53;23.27;;;7.38;;
69419;SDS011;56612;52.030;113.524;2023-02-03T17:06:09;26.17;;;8.10;;
69419;SDS011;56612;52.030;113.524;2023-02-03T17:09:13;26.20;;;8.75;;
69419;SDS011;56612;52.030;113.524;2023-02-03T17:12:18;28.02;;;7.40;;
69419;SDS011;56612;52.030;113.524;2023-02-03T17:15:21;30.65;;;9.68;;
69419;SDS011;56612;52.030;113.524;2023-02-03T17:18:25;30.13;;;9.83;;
69419;SDS011;56612;52.030;113.524;2023-02-03T17:21:28;30.05;;;8.85;;
69419;SDS011;56612;52.030;113.524;2023-02-03T17:24:32;25.30;;;8.20;;
69419;SDS011;56612;52.030;113.524;2023-02-03T17:27:35;30.58;;;7.55;;
69419;SDS011;56612;52.030;113.524;2023-02-03T17:30:39;28.08;;;7.88;;
69419;SDS011;56612;52.030;113.524;2023-02-03T17:33:43;19.83;;;6.57;;
69419;SDS011;56612;52.030;113.524;2023-02-03T17:36:48;30.70;;;9.07;;
69419;SDS011;56612;52.030;113.524;2023-02-03T17:39:52;26.65;;;8.15;;
69419;SDS011;56612;52.030;113.524;2023-02-03T17:43:12;23.00;;;6.85;;
69419;SDS011;56612;52.030;113.524;2023-02-03T17:46:34;22.17;;;6.77;;
69419;SDS011;56612;52.030;113.524;2023-02-03T17:49:53;19.00;;;5.53;;
69419;SDS011;56612;52.030;113.524;2023-02-03T17:53:13;23.45;;;6.43;;
69419;SDS011;56612;52.030;113.524;2023-02-03T17:56:17;24.30;;;6.45;;
69419;SDS011;56612;52.030;113.524;2023-02-03T17:59:22;14.50;;;5.75;;
69419;SDS011;56612;52.030;113.524;2023-02-03T18:02:26;14.07;;;4.87;;
69419;SDS011;56612;52.030;113.524;2023-02-03T18:05:29;12.43;;;4.18;;
69419;SDS011;56612;52.030;113.524;2023-02-03T18:08:34;18.15;;;4.80;;
69419;SDS011;56612;52.030;113.524;2023-02-03T18:11:38;11.43;;;3.45;;
69419;SDS011;56612;52.030;113.524;2023-02-03T18:14:42;15.70;;;6.13;;
69419;SDS011;56612;52.030;113.524;2023-02-03T18:17:46;18.00;;;5.00;;
69419;SDS011;56612;52.030;113.524;2023-02-03T18:20:51;16.55;;;5.60;;
69419;SDS011;56612;52.030;113.524;2023-02-03T18:23:54;12.95;;;4.63;;
69419;SDS011;56612;52.030;113.524;2023-02-03T18:27:01;15.65;;;5.03;;
69419;SDS011;56612;52.030;113.524;2023-02-03T18:30:05;18.23;;;6.13;;
69419;SDS011;56612;52.030;113.524;2023-02-03T18:33:13;17.73;;;5.30;;
69419;SDS011;56612;52.030;113.524;2023-02-03T18:36:17;17.92;;;5.38;;
69419;SDS011;56612;52.030;113.524;2023-02-03T18:39:21;18.90;;;6.28;;
69419;SDS011;56612;52.030;113.524;2023-02-03T18:42:25;17.90;;;5.57;;
69419;SDS011;56612;52.030;113.524;2023-02-03T18:45:28;18.50;;;5.10;;
69419;SDS011;56612;52.030;113.524;2023-02-03T18:48:33;15.23;;;5.47;;
69419;SDS011;56612;52.030;113.524;2023-02-03T18:51:36;23.45;;;6.22;;
69419;SDS011;56612;52.030;113.524;2023-02-03T18:54:39;14.52;;;5.18;;
69419;SDS011;56612;52.030;113.524;2023-02-03T18:57:43;19.97;;;5.60;;
69419;SDS011;56612;52.030;113.524;2023-02-03T19:00:47;24.48;;;9.15;;
69419;SDS011;56612;52.030;113.524;2023-02-03T19:03:53;24.90;;;6.97;;
69419;SDS011;56612;52.030;113.524;2023-02-03T19:06:56;26.38;;;7.53;;
69419;SDS011;56612;52.030;113.524;2023-02-03T19:10:00;26.15;;;7.82;;
69419;SDS011;56612;52.030;113.524;2023-02-03T19:13:04;23.93;;;6.60;;
69419;SDS011;56612;52.030;113.524;2023-02-03T19:16:07;27.42;;;8.85;;
69419;SDS011;56612;52.030;113.524;2023-02-03T19:19:13;15.85;;;6.22;;
69419;SDS011;56612;52.030;113.524;2023-02-03T19:22:16;19.52;;;6.78;;
69419;SDS011;56612;52.030;113.524;2023-02-03T19:25:19;16.77;;;5.15;;
69419;SDS011;56612;52.030;113.524;2023-02-03T19:28:24;14.00;;;4.60;;
69419;SDS011;56612;52.030;113.524;2023-02-03T19:31:33;12.77;;;4.55;;
69419;SDS011;56612;52.030;113.524;2023-02-03T19:34:40;12.43;;;4.07;;
69419;SDS011;56612;52.030;113.524;2023-02-03T19:37:44;16.60;;;4.82;;
69419;SDS011;56612;52.030;113.524;2023-02-03T19:40:47;15.65;;;4.57;;
69419;SDS011;56612;52.030;113.524;2023-02-03T19:43:51;13.33;;;4.30;;
69419;SDS011;56612;52.030;113.524;2023-02-03T19:46:56;14.60;;;4.25;;
69419;SDS011;56612;52.030;113.524;2023-02-03T19:49:59;11.93;;;4.18;;
69419;SDS011;56612;52.030;113.524;2023-02-03T19:53:04;11.30;;;3.67;;
69419;SDS011;56612;52.030;113.524;2023-02-03T19:56:10;18.75;;;4.43;;
69419;SDS011;56612;52.030;113.524;2023-02-03T19:59:14;20.23;;;5.32;;
69419;SDS011;56612;52.030;113.524;2023-02-03T20:02:19;11.35;;;3.38;;
69419;SDS011;56612;52.030;113.524;2023-02-03T20:05:22;11.27;;;3.20;;
69419;SDS011;56612;52.030;113.524;2023-02-03T20:08:26;12.27;;;4.50;;
69419;SDS011;56612;52.030;113.524;2023-02-03T20:11:30;13.10;;;3.60;;
69419;SDS011;56612;52.030;113.524;2023-02-03T20:14:34;14.40;;;4.68;;
69419;SDS011;56612;52.030;113.524;2023-02-03T20:17:37;13.02;;;3.85;;
69419;SDS011;56612;52.030;113.524;2023-02-03T20:20:40;9.57;;;2.88;;
69419;SDS011;56612;52.030;113.524;2023-02-03T20:23:44;11.98;;;4.13;;
69419;SDS011;56612;52.030;113.524;2023-02-03T20:26:48;10.43;;;3.17;;
69419;SDS011;56612;52.030;113.524;2023-02-03T20:29:51;13.35;;;3.80;;
69419;SDS011;56612;52.030;113.524;2023-02-03T20:32:55;9.57;;;3.08;;